x

Nickerson Bank (44251) Wave Buoy

10:00pm - Wed 1st Apr 2015 All times are UTC.

  • Sig Wave height 7.2ft
  • Peak Period 9s
  • Wind
    16mph, 20mph gusts
  • Sea Temp 37°f
  • Air Temp 33°f
  • Sea Pressure 1004.7mb

More Historic Weather Station data

Upgrade to MSW Pro to gain access to the past 30 days of data for over 8000 Wavebouys and Weather Stations around the globe.

Join Pro

Comparision Forecast

View Surf forecast
   
Wed 04/01 10:00pm 7ft 9s 16 20 mph 1004.7mb 37f 33f
9:00pm 7ft 9s 11 13 mph 1006.5mb 37f 33f
8:00pm 6.5ft 9s 9
mph
1008.2mb 37f 33f
7:00pm 6ft 10s 7 9 mph 1008.9mb 37f 33f
6:00pm 5.5ft 9s 9
mph
1009.6mb 37f 33f
5:00pm 6.5ft 8s 11 13 mph 1010.3mb 37f 33f
4:00pm 6.5ft 8s 11 13 mph 1010.6mb 37f 33f
3:00pm 8ft 8s 13 16 mph 1010.6mb 37f 34f
2:00pm 7ft 7s 16 18 mph 1010mb 37f 33f
1:00pm 7ft 7s 16 18 mph 1009.5mb 37f 33f
12:00pm 7ft 6s 20 25 mph 1008.6mb 37f 33f
11:00am 6.5ft 6s 22 27 mph 1007.8mb 36f 33f
10:00am 6.5ft 6s 20 25 mph 1006.8mb 37f 33f
9:00am 6.5ft 5s 20 25 mph 1006mb 37f 33f
8:00am 6ft 5s 22 27 mph 1005mb 37f 34f
7:00am 5.5ft  -  25 31 mph 1004.1mb 37f 34f
6:00am 5ft 10s 25 27 mph 1003.8mb 37f 34f
5:00am 5ft 9s 22 25 mph 1003.8mb 37f 35f
4:00am 4.5ft 8s 18 22 mph 1003.5mb 37f 34f
3:00am 4.5ft 8s 16 18 mph 1003.7mb 37f 34f
2:00am 4.5ft 8s 13 16 mph 1003.5mb 37f 33f
1:00am 4.5ft 8s 13 16 mph 1003.8mb 37f 33f
12:00am 4.5ft 8s 13 16 mph 1004mb 37f 32f
Tue 03/31 11:00pm 4.5ft 8s 13 16 mph 1004.3mb 37f 31f
10:00pm 4.5ft 7s 13
mph
1004.6mb 37f 31f
9:00pm 4.5ft 9s 11 13 mph 1004mb 37f 31f
8:00pm 4.5ft 9s 13
mph
1004.2mb 37f 31f
7:00pm 4.5ft 7s 9 11 mph 1004.7mb 37f 31f
6:00pm 4.5ft 8s 11 13 mph 1004.9mb 37f 31f
5:00pm 4.5ft 7s 9 11 mph 1005.4mb 37f 31f
4:00pm 4ft 9s 9
mph
1006.5mb 37f 31f
3:00pm 4ft 8s 11 13 mph 1006.7mb 37f 31f
2:00pm 4ft 10s 7 9 mph 1007.9mb 36f 32f
1:00pm 3.5ft 10s 7
mph
1008mb 37f 31f
12:00pm 3.5ft 11s 7 9 mph 1008.4mb 36f 31f
11:00am 3.5ft 11s 9 11 mph 1008.8mb 36f 31f
10:00am 3.5ft 10s 9 11 mph 1009.4mb 37f 31f
9:00am 3.5ft 11s 9 11 mph 1009.4mb 37f 30f
8:00am 3.5ft 10s 9 11 mph 1009.5mb 37f 30f
7:00am 4ft 10s 11 13 mph 1009.8mb 37f 30f
6:00am 4.5ft 11s 11 13 mph 1010.1mb 37f 31f
5:00am 3.5ft 11s 9 11 mph 1010.8mb 37f 31f
4:00am 4.5ft 11s 9 11 mph 1011.8mb 37f 31f
3:00am 4.5ft 11s 11 13 mph 1012.9mb 37f 31f
2:00am 4.5ft 10s 11 13 mph 1013.5mb 37f 31f
1:00am 5ft 11s 11 13 mph 1014.2mb 37f 30f
12:00am 5ft 12s 11 13 mph 1015mb 37f 30f
Mon 03/30 11:00pm 5.5ft 9s 7 9 mph 1016.2mb 37f 31f
10:00pm 6ft 12s 4 7 mph 1016.3mb 38f 30f
9:00pm 6.5ft 11s 4
mph
1016.1mb 38f 30f
8:00pm 6.5ft 12s 7 9 mph 1016.5mb 38f 31f
7:00pm 7.5ft 12s 2 4 mph 1017.5mb 38f 32f
6:00pm 8ft 10s  -  2 mph 1018.1mb 37f 33f
5:00pm 8.5ft 11s 2 4 mph 1019mb 37f 32f
4:00pm 9ft 12s 4 7 mph 1019.3mb 36f 31f
3:00pm 10ft 12s 7 9 mph 1018.9mb 37f 31f
2:00pm 10ft 11s 9 11 mph 1019.5mb 36f 31f
1:00pm 10ft 12s 7
mph
1020.4mb 36f 31f
12:00pm 10ft 12s 4 7 mph 1020.4mb 36f 31f
11:00am 11ft 12s 7 9 mph 1020.7mb 36f 30f
10:00am 11ft 13s 9 11 mph 1020.5mb 36f 30f
9:00am 10ft 13s 13 16 mph 1019.4mb 36f 30f
8:00am 10.5ft 13s 13 18 mph 1019.2mb 36f 30f
7:00am 13ft 13s 13 16 mph 1018.5mb 36f 30f
6:00am 12ft 14s 13 16 mph 1018.5mb 36f 31f
5:00am 12ft 12s 13 18 mph 1017.7mb 36f 31f
4:00am 12ft 13s 13 18 mph 1017.8mb 36f 31f
3:00am 14ft 14s 13 18 mph 1017.4mb 36f 31f
2:00am 14ft 14s 13 18 mph 1017.2mb 36f 31f
1:00am 15.5ft 13s 18 22 mph 1016.5mb 36f 32f
12:00am 15.5ft 14s 18 25 mph 1015.7mb 37f 32f
Sun 03/29 11:00pm 17ft 14s 13 18 mph 1014.6mb 37f 32f
10:00pm 17.5ft 14s 13 18 mph 1013.6mb 37f 33f
9:00pm 17.5ft 14s 18 22 mph 1012mb 37f 33f
8:00pm 17.5ft 14s 18 22 mph 1009.8mb 37f 34f
7:00pm 18.5ft 13s 25 29 mph 1007.5mb 37f 33f
6:00pm 18.5ft 12s 29 36 mph 1005.1mb 37f 33f
5:00pm 16.5ft 13s 29 36 mph 1002.5mb 37f 33f
4:00pm 16.5ft 13s 31 40 mph 999.3mb 37f 33f
3:00pm 16.5ft 12s 36 49 mph 996.3mb 37f 34f
2:00pm 15.5ft 11s 31 36 mph 994.8mb 37f 35f
1:00pm 14ft 12s 31 38 mph 994mb 37f 37f
12:00pm 14.5ft 13s 27 34 mph 994.2mb 37f 38f
11:00am 14ft 12s 27 40 mph 994.3mb 37f 40f
10:00am 12.5ft 12s 25 29 mph 994.5mb 37f 39f
9:00am 14.5ft 12s 25 29 mph 994.9mb 37f 38f
8:00am 12ft 13s 16 20 mph 995.4mb 37f 39f
7:00am 13ft 13s 18 22 mph 995.7mb 37f 32f
6:00am 13ft 13s 20 25 mph 996.7mb 37f 32f
5:00am 12.5ft 13s 22 27 mph 997.9mb 37f 31f
4:00am 12.5ft 12s 16 20 mph 999.1mb 37f 32f
3:00am 11ft 12s 18 22 mph 1000.3mb 37f 32f
1:00am  -   -  18
mph
1002.3mb 37f 32f
12:00am 10.5ft 12s 20 27 mph 1001.7mb 37f 33f